createdAt,value
2022-11-04T00:01:49.200Z,12.85
2022-11-04T00:04:19.355Z,12.85
2022-11-04T00:06:50.598Z,12.83
2022-11-04T00:09:21.855Z,12.68
2022-11-04T00:12:07.641Z,12.82
2022-11-04T00:14:36.585Z,12.75
2022-11-04T00:17:20.003Z,12.93
2022-11-04T00:20:06.569Z,12.92
2022-11-04T00:22:51.919Z,13.01
2022-11-04T00:25:38.725Z,13.10
2022-11-04T00:28:27.406Z,12.81
2022-11-04T00:30:56.719Z,12.84
2022-11-04T00:33:26.854Z,12.90
2022-11-04T00:35:57.529Z,12.88
2022-11-04T00:38:26.560Z,12.62
2022-11-04T00:40:55.719Z,12.49
2022-11-04T00:43:23.534Z,12.63
2022-11-04T00:45:51.342Z,12.57
2022-11-04T00:48:20.323Z,12.79
2022-11-04T00:50:48.144Z,12.72
2022-11-04T00:53:16.077Z,12.69
2022-11-04T00:55:44.333Z,12.80
2022-11-04T00:58:13.576Z,12.73
2022-11-04T01:00:41.501Z,12.69
2022-11-04T01:03:09.901Z,12.79
2022-11-04T01:05:38.764Z,12.70
2022-11-04T01:08:06.734Z,12.70
2022-11-04T01:10:36.247Z,12.74
2022-11-04T01:13:04.240Z,12.59
2022-11-04T01:15:33.479Z,12.85
2022-11-04T01:18:01.424Z,12.88
2022-11-04T01:20:29.410Z,12.77
2022-11-04T01:22:57.288Z,12.76
2022-11-04T01:25:25.152Z,12.70
2022-11-04T01:27:53.018Z,12.91
2022-11-04T01:30:20.943Z,12.58
2022-11-04T01:32:50.112Z,12.56
2022-11-04T01:35:18.055Z,12.72
2022-11-04T01:37:45.826Z,12.65
2022-11-04T01:40:15.112Z,12.62
2022-11-04T01:42:43.014Z,12.56
2022-11-04T01:45:14.915Z,12.67
2022-11-04T01:47:47.220Z,12.43
2022-11-04T01:50:21.741Z,12.60
2022-11-04T01:52:51.973Z,12.52
2022-11-04T01:55:24.672Z,12.61
2022-11-04T01:57:56.205Z,12.60
2022-11-04T02:00:24.297Z,12.41
2022-11-04T02:02:58.097Z,12.62
2022-11-04T02:05:28.292Z,12.48
2022-11-04T02:07:59.130Z,12.47
2022-11-04T02:10:29.213Z,12.44
2022-11-04T02:12:58.246Z,12.42
2022-11-04T02:15:36.885Z,12.42
2022-11-04T02:18:29.547Z,12.17
2022-11-04T02:21:20.354Z,12.36
2022-11-04T02:24:22.341Z,12.19
2022-11-04T02:27:04.842Z,12.15
2022-11-04T02:29:55.585Z,12.19
2022-11-04T02:32:33.252Z,12.25
2022-11-04T02:35:06.363Z,12.14
2022-11-04T02:37:42.229Z,12.14
2022-11-04T02:40:22.456Z,12.09
2022-11-04T02:42:58.556Z,12.13
2022-11-04T02:45:36.860Z,12.11
2022-11-04T02:48:11.070Z,12.13
2022-11-04T02:50:47.393Z,12.19
2022-11-04T02:53:21.649Z,12.14
2022-11-04T02:55:54.139Z,12.11
2022-11-04T02:58:28.336Z,12.10
2022-11-04T03:01:00.302Z,11.96
2022-11-04T03:03:33.753Z,11.98
2022-11-04T03:06:04.051Z,11.91
2022-11-04T03:08:35.030Z,11.85
2022-11-04T03:11:10.038Z,12.00
2022-11-04T03:13:43.400Z,11.86
2022-11-04T03:16:16.364Z,11.93
2022-11-04T03:18:56.439Z,11.82
2022-11-04T03:21:26.779Z,11.85
2022-11-04T03:23:55.540Z,11.80
2022-11-04T03:26:29.685Z,11.58
2022-11-04T03:29:11.145Z,11.75
2022-11-04T03:31:46.188Z,11.61
2022-11-04T03:34:14.208Z,11.59
2022-11-04T03:36:42.247Z,11.77
2022-11-04T03:39:10.336Z,11.58
2022-11-04T03:41:43.718Z,11.50
2022-11-04T03:44:11.961Z,11.53
2022-11-04T03:46:41.347Z,11.53
2022-11-04T03:49:11.117Z,11.60
2022-11-04T03:51:39.004Z,11.59
2022-11-04T03:54:08.079Z,11.47
2022-11-04T03:57:05.465Z,11.43
2022-11-04T03:59:48.479Z,11.50
2022-11-04T04:02:22.267Z,11.58
2022-11-04T04:04:58.087Z,11.50
2022-11-04T04:07:33.537Z,11.51
2022-11-04T04:10:31.671Z,11.49
2022-11-04T04:13:03.677Z,11.32
2022-11-04T04:15:39.310Z,11.46
2022-11-04T04:18:14.270Z,11.29
2022-11-04T04:20:47.199Z,11.42
2022-11-04T04:23:37.084Z,11.15
2022-11-04T04:26:26.935Z,11.26
2022-11-04T04:28:57.217Z,11.30
2022-11-04T04:31:46.517Z,11.18
2022-11-04T04:34:16.524Z,11.13
2022-11-04T04:36:47.912Z,11.11
2022-11-04T04:39:37.234Z,11.04
2022-11-04T04:42:23.517Z,11.00
2022-11-04T04:45:00.642Z,10.98
2022-11-04T04:47:33.049Z,10.90
2022-11-04T04:50:03.087Z,11.01
2022-11-04T04:52:33.265Z,10.98
2022-11-04T04:55:01.206Z,10.94
2022-11-04T04:57:29.068Z,10.70
2022-11-04T04:59:56.902Z,10.77
2022-11-04T05:02:24.797Z,10.82
2022-11-04T05:04:52.746Z,10.90
2022-11-04T05:07:21.865Z,11.00
2022-11-04T05:09:49.952Z,10.94
2022-11-04T05:12:18.114Z,10.83
2022-11-04T05:14:45.855Z,10.98
2022-11-04T05:17:13.876Z,10.96
2022-11-04T05:19:42.025Z,10.83
2022-11-04T05:22:10.004Z,10.79
2022-11-04T05:24:39.193Z,10.86
2022-11-04T05:27:07.066Z,10.84
2022-11-04T05:29:34.916Z,10.90
2022-11-04T05:32:02.676Z,10.88
2022-11-04T05:34:30.760Z,10.83
2022-11-04T05:37:00.461Z,10.74
2022-11-04T05:39:28.434Z,10.84
2022-11-04T05:41:58.654Z,10.70
2022-11-04T05:44:26.430Z,10.74
2022-11-04T05:46:54.214Z,10.78
2022-11-04T05:49:22.084Z,10.67
2022-11-04T05:51:49.899Z,10.71
2022-11-04T05:54:17.805Z,10.77
2022-11-04T05:56:45.652Z,10.69
2022-11-04T05:59:14.943Z,10.77
2022-11-04T06:01:46.225Z,10.86
2022-11-04T06:04:16.658Z,10.78
2022-11-04T06:06:45.341Z,10.83
2022-11-04T06:09:13.348Z,10.66
2022-11-04T06:11:41.545Z,10.84
2022-11-04T06:14:10.277Z,10.72
2022-11-04T06:16:40.866Z,10.73
2022-11-04T06:19:13.463Z,10.87
2022-11-04T06:21:44.118Z,10.87
2022-11-04T06:24:12.233Z,10.92
2022-11-04T06:26:40.078Z,10.94
2022-11-04T06:29:08.830Z,10.89
2022-11-04T06:31:37.390Z,10.90
2022-11-04T06:34:06.732Z,10.91
2022-11-04T06:36:34.705Z,10.89
2022-11-04T06:39:04.882Z,10.84
2022-11-04T06:41:33.025Z,10.80
2022-11-04T06:44:01.035Z,10.79
2022-11-04T06:46:32.610Z,10.58
2022-11-04T06:49:00.717Z,10.79
2022-11-04T06:51:31.796Z,10.75
2022-11-04T06:53:59.613Z,10.81
2022-11-04T06:56:27.610Z,10.84
2022-11-04T06:58:56.130Z,10.87
2022-11-04T07:01:26.921Z,10.97
2022-11-04T07:03:57.885Z,11.32
2022-11-04T07:06:27.176Z,11.21
2022-11-04T07:08:59.080Z,11.39
2022-11-04T07:11:29.394Z,11.39
2022-11-04T07:13:57.316Z,11.36
2022-11-04T07:16:26.213Z,11.20
2022-11-04T07:18:55.437Z,11.30
2022-11-04T07:21:23.736Z,11.19
2022-11-04T07:23:51.639Z,11.34
2022-11-04T07:26:21.548Z,11.44
2022-11-04T07:28:49.586Z,11.46
2022-11-04T07:31:18.032Z,11.60
2022-11-04T07:33:49.861Z,11.54
2022-11-04T07:36:19.050Z,11.61
2022-11-04T07:38:47.756Z,11.65
2022-11-04T07:41:16.443Z,11.65
2022-11-04T07:43:49.564Z,11.79
2022-11-04T07:46:17.452Z,11.61
2022-11-04T07:48:45.318Z,11.64
2022-11-04T07:51:17.266Z,11.65
2022-11-04T07:53:45.284Z,11.76
2022-11-04T07:56:14.437Z,11.76
2022-11-04T07:58:42.959Z,11.79
2022-11-04T08:01:14.292Z,12.04
2022-11-04T08:03:42.871Z,12.10
2022-11-04T08:06:13.689Z,12.09
2022-11-04T08:08:43.307Z,11.98
2022-11-04T08:11:17.832Z,12.37
2022-11-04T08:13:47.264Z,12.05
2022-11-04T08:16:18.931Z,12.13
2022-11-04T08:18:48.543Z,12.15
2022-11-04T08:21:16.922Z,12.19
2022-11-04T08:23:46.051Z,12.25
2022-11-04T08:26:17.778Z,12.36
2022-11-04T08:28:46.388Z,12.31
2022-11-04T08:31:18.966Z,12.53
2022-11-04T08:33:47.970Z,12.44
2022-11-04T08:36:19.360Z,12.60
2022-11-04T08:38:48.132Z,12.51
2022-11-04T08:41:19.649Z,12.69
2022-11-04T08:43:56.635Z,12.67
2022-11-04T08:46:25.891Z,12.50
2022-11-04T08:48:53.693Z,12.47
2022-11-04T08:51:24.781Z,12.71
2022-11-04T08:53:53.095Z,12.64
2022-11-04T08:56:22.526Z,12.94
2022-11-04T08:58:51.532Z,12.55
2022-11-04T09:01:20.705Z,12.48
2022-11-04T09:03:51.156Z,12.43
2022-11-04T09:06:21.709Z,12.56
2022-11-04T09:08:50.396Z,12.32
2022-11-04T09:11:19.112Z,12.37
2022-11-04T09:13:47.734Z,12.24
2022-11-04T09:16:19.257Z,12.40
2022-11-04T09:18:47.436Z,12.28
2022-11-04T09:21:16.798Z,12.47
2022-11-04T09:23:44.785Z,12.49
2022-11-04T09:26:14.871Z,12.24
2022-11-04T09:28:43.501Z,12.39
2022-11-04T09:31:13.475Z,12.52
2022-11-04T09:33:41.944Z,12.71
2022-11-04T09:36:11.719Z,13.08
2022-11-04T09:38:42.899Z,13.18
2022-11-04T09:41:37.385Z,13.37
2022-11-04T09:44:16.444Z,13.51
2022-11-04T09:46:48.443Z,13.63
2022-11-04T09:49:17.682Z,13.67
2022-11-04T09:51:56.584Z,13.93
2022-11-04T09:54:31.426Z,13.55
2022-11-04T09:57:02.829Z,13.61
2022-11-04T09:59:35.366Z,13.73
2022-11-04T10:02:44.795Z,13.77
2022-11-04T10:05:35.704Z,13.69
2022-11-04T10:08:36.680Z,13.84
2022-11-04T10:11:16.193Z,13.74
2022-11-04T10:13:59.480Z,13.87
2022-11-04T10:16:42.744Z,13.94
2022-11-04T10:19:31.527Z,14.15
2022-11-04T10:22:05.786Z,14.36
2022-11-04T10:24:42.674Z,14.50
2022-11-04T10:27:18.371Z,14.63
2022-11-04T10:29:49.619Z,14.69
2022-11-04T10:32:22.716Z,14.88
2022-11-04T10:34:57.331Z,15.47
2022-11-04T10:37:27.161Z,14.83
2022-11-04T10:40:03.638Z,14.72
2022-11-04T10:42:34.110Z,14.87
2022-11-04T10:45:03.042Z,14.73
2022-11-04T10:47:47.954Z,14.59
2022-11-04T10:50:37.657Z,14.88
2022-11-04T10:53:17.324Z,14.65
2022-11-04T10:55:54.281Z,14.99
2022-11-04T10:58:26.823Z,14.84
2022-11-04T11:00:57.423Z,14.91
2022-11-04T11:03:32.365Z,15.26
2022-11-04T11:06:14.183Z,15.24
2022-11-04T11:08:43.299Z,15.64
2022-11-04T11:11:12.648Z,15.23
2022-11-04T11:13:43.605Z,14.69
2022-11-04T11:16:15.313Z,14.72
2022-11-04T11:18:43.199Z,14.88
2022-11-04T11:21:14.223Z,15.04
2022-11-04T11:23:45.292Z,15.24
2022-11-04T11:26:15.711Z,15.09
2022-11-04T11:28:55.806Z,14.75
2022-11-04T11:31:26.934Z,14.74
2022-11-04T11:33:58.163Z,15.07
2022-11-04T11:36:27.892Z,14.96
2022-11-04T11:39:01.122Z,14.91
2022-11-04T11:41:32.328Z,15.48
2022-11-04T11:44:05.856Z,14.92
2022-11-04T11:46:36.365Z,15.10
2022-11-04T11:49:06.537Z,15.50
2022-11-04T11:51:36.943Z,15.17
2022-11-04T11:54:39.652Z,14.83
2022-11-04T11:57:25.310Z,15.07
2022-11-04T12:02:53.182Z,15.70
2022-11-04T12:11:25.583Z,15.11
2022-11-04T12:13:57.126Z,15.68
2022-11-04T12:16:35.511Z,15.70
2022-11-04T12:19:20.556Z,16.44
2022-11-04T12:21:56.138Z,16.51
2022-11-04T12:24:33.124Z,16.95
2022-11-04T12:27:12.820Z,16.28
2022-11-04T12:29:49.845Z,16.08
2022-11-04T12:32:27.976Z,16.31
2022-11-04T12:35:12.065Z,16.81
2022-11-04T12:37:55.583Z,16.42
2022-11-04T12:40:28.621Z,16.45
2022-11-04T12:43:16.987Z,17.15
2022-11-04T12:45:59.935Z,16.59
2022-11-04T12:48:42.067Z,16.45
2022-11-04T12:51:15.332Z,16.03
2022-11-04T12:54:09.732Z,16.01
2022-11-04T12:56:39.470Z,16.01
2022-11-04T12:59:26.399Z,16.15
2022-11-04T13:01:58.154Z,16.26
2022-11-04T13:04:33.828Z,16.54
2022-11-04T13:07:06.575Z,16.46
2022-11-04T13:09:38.849Z,15.83
2022-11-04T13:12:12.015Z,15.73
2022-11-04T13:14:46.057Z,16.31
2022-11-04T13:17:20.778Z,16.15
2022-11-04T13:19:52.871Z,16.51
2022-11-04T13:22:24.592Z,16.66
2022-11-04T13:24:56.640Z,16.54
2022-11-04T13:27:27.979Z,16.11
2022-11-04T13:30:06.419Z,15.38
2022-11-04T13:32:39.506Z,15.25
2022-11-04T13:35:17.819Z,15.53
2022-11-04T13:37:55.606Z,15.55
2022-11-04T13:40:27.661Z,15.56
2022-11-04T13:43:39.197Z,15.63
2022-11-04T13:46:19.977Z,15.70
2022-11-04T13:49:05.709Z,15.70
2022-11-04T13:51:44.354Z,15.87
2022-11-04T13:54:28.714Z,15.77
2022-11-04T13:57:22.083Z,15.98
2022-11-04T14:00:24.147Z,15.57
2022-11-04T14:02:52.430Z,15.50
2022-11-04T14:05:57.141Z,15.35
2022-11-04T14:08:26.381Z,14.95
2022-11-04T14:11:07.606Z,15.13
2022-11-04T14:14:10.971Z,15.07
2022-11-04T14:16:43.913Z,15.27
2022-11-04T14:19:56.609Z,15.21
2022-11-04T14:22:34.211Z,15.41
2022-11-04T14:25:20.211Z,15.09
2022-11-04T14:27:49.591Z,15.14
2022-11-04T14:30:33.486Z,14.85
2022-11-04T14:33:04.481Z,14.69
2022-11-04T14:35:33.374Z,14.70
2022-11-04T14:38:07.406Z,14.82
2022-11-04T14:40:53.433Z,14.64
2022-11-04T14:43:33.793Z,14.41
2022-11-04T14:46:03.081Z,14.77
2022-11-04T14:48:32.049Z,14.48
2022-11-04T14:50:59.905Z,14.44
2022-11-04T14:53:32.848Z,14.40
2022-11-04T14:56:23.022Z,14.30
2022-11-04T14:58:59.454Z,14.18
2022-11-04T15:01:34.590Z,14.42
2022-11-04T15:04:12.281Z,14.47
2022-11-04T15:06:54.397Z,14.30
2022-11-04T15:09:25.611Z,13.90
2022-11-04T15:12:21.021Z,13.96
2022-11-04T15:14:48.845Z,13.99
2022-11-04T15:17:20.653Z,14.04
2022-11-04T15:19:52.052Z,13.84
2022-11-04T15:22:20.897Z,13.76
2022-11-04T15:24:50.585Z,13.77
2022-11-04T15:27:29.788Z,13.67
2022-11-04T15:29:59.451Z,13.62
2022-11-04T15:32:28.104Z,13.65
2022-11-04T15:34:57.336Z,13.72
2022-11-04T15:37:28.847Z,13.73
2022-11-04T15:39:59.299Z,13.59
2022-11-04T15:42:40.473Z,13.64
2022-11-04T15:45:28.777Z,13.57
2022-11-04T15:48:40.299Z,13.52
2022-11-04T15:51:20.080Z,13.54
2022-11-04T15:53:52.100Z,13.53
2022-11-04T15:56:22.965Z,13.53
2022-11-04T15:58:54.295Z,13.71
2022-11-04T16:01:22.632Z,13.55
2022-11-04T16:03:53.308Z,13.75
2022-11-04T16:06:34.730Z,13.73
2022-11-04T16:09:06.019Z,13.53
2022-11-04T16:11:33.889Z,13.50
2022-11-04T16:14:26.517Z,13.43
2022-11-04T16:16:55.168Z,13.64
2022-11-04T16:19:26.404Z,13.50
2022-11-04T16:22:01.403Z,13.49
2022-11-04T16:24:32.852Z,13.55
2022-11-04T16:27:01.161Z,13.58
2022-11-04T16:29:32.632Z,13.56
2022-11-04T16:32:17.965Z,13.41
2022-11-04T16:34:46.915Z,13.50
2022-11-04T16:37:15.429Z,13.59
2022-11-04T16:39:45.086Z,13.46
2022-11-04T16:42:14.323Z,13.38
2022-11-04T16:44:48.254Z,13.45
2022-11-04T16:47:16.981Z,13.42
2022-11-04T16:49:45.282Z,13.45
2022-11-04T16:52:15.964Z,13.43
2022-11-04T16:54:43.877Z,13.39
2022-11-04T16:57:14.523Z,13.42
2022-11-04T16:59:44.452Z,13.65
2022-11-04T17:02:27.253Z,13.67
2022-11-04T17:04:55.629Z,13.82
2022-11-04T17:07:35.177Z,13.94
2022-11-04T17:10:17.064Z,13.80
2022-11-04T17:12:45.128Z,13.79
2022-11-04T17:15:16.150Z,13.44
2022-11-04T17:17:44.668Z,13.20
2022-11-04T17:20:16.686Z,13.40
2022-11-04T17:22:45.206Z,13.39
2022-11-04T17:25:18.759Z,13.15
2022-11-04T17:27:46.712Z,13.20
2022-11-04T17:30:17.290Z,13.05
2022-11-04T17:32:46.628Z,12.95
2022-11-04T17:35:15.125Z,13.09
2022-11-04T17:37:43.817Z,13.01
2022-11-04T17:40:16.451Z,13.09
2022-11-04T17:43:04.434Z,12.80
2022-11-04T17:45:37.939Z,12.62
2022-11-04T17:48:06.679Z,12.65
2022-11-04T17:50:35.048Z,12.52
2022-11-04T17:53:03.051Z,12.27
2022-11-04T17:55:31.102Z,12.54
2022-11-04T17:57:58.859Z,12.59
2022-11-04T18:00:29.645Z,12.51
2022-11-04T18:02:59.279Z,12.31
2022-11-04T18:05:27.082Z,12.25
2022-11-04T18:07:56.403Z,11.96
2022-11-04T18:10:24.461Z,12.31
2022-11-04T18:12:52.845Z,12.14
2022-11-04T18:15:21.173Z,12.30
2022-11-04T18:17:50.773Z,12.26
2022-11-04T18:20:20.175Z,11.94
2022-11-04T18:22:48.165Z,12.01
2022-11-04T18:25:16.049Z,11.97
2022-11-04T18:27:44.747Z,11.98
2022-11-04T18:30:15.987Z,11.99
2022-11-04T18:32:43.995Z,11.97
2022-11-04T18:35:11.794Z,12.06
2022-11-04T18:37:46.773Z,11.93
2022-11-04T18:40:15.558Z,11.81
2022-11-04T18:42:44.173Z,11.92
2022-11-04T18:45:12.453Z,11.84
2022-11-04T18:47:45.051Z,12.06
2022-11-04T18:50:12.997Z,12.00
2022-11-04T18:52:42.289Z,11.90
2022-11-04T18:55:10.735Z,11.98
2022-11-04T18:57:38.639Z,12.01
2022-11-04T19:00:09.624Z,12.00
2022-11-04T19:02:40.972Z,11.86
2022-11-04T19:05:10.497Z,12.10
2022-11-04T19:07:38.348Z,12.11
2022-11-04T19:10:08.938Z,12.13
2022-11-04T19:12:54.757Z,12.03
2022-11-04T19:15:22.664Z,12.20
2022-11-04T19:17:51.154Z,12.10
2022-11-04T19:20:19.358Z,12.10
2022-11-04T19:22:47.534Z,12.08
2022-11-04T19:25:16.781Z,12.03
2022-11-04T19:27:44.722Z,12.01
2022-11-04T19:30:13.798Z,11.99
2022-11-04T19:32:45.097Z,11.96
2022-11-04T19:35:13.020Z,11.83
2022-11-04T19:37:40.981Z,11.59
2022-11-04T19:40:10.920Z,11.57
2022-11-04T19:42:57.453Z,11.60
2022-11-04T19:45:25.322Z,11.48
2022-11-04T19:47:53.476Z,11.53
2022-11-04T19:50:22.495Z,11.41
2022-11-04T19:52:51.815Z,11.45
2022-11-04T19:55:19.851Z,11.37
2022-11-04T19:57:48.998Z,11.34
2022-11-04T20:00:28.043Z,11.31
2022-11-04T20:02:56.085Z,11.20
2022-11-04T20:05:24.165Z,11.26
2022-11-04T20:07:54.351Z,11.22
2022-11-04T20:10:23.979Z,11.08
2022-11-04T20:13:10.523Z,11.08
2022-11-04T20:15:38.324Z,11.03
2022-11-04T20:18:06.838Z,11.08
2022-11-04T20:20:34.736Z,11.11
2022-11-04T20:23:02.625Z,11.25
2022-11-04T20:25:30.862Z,11.35
2022-11-04T20:28:02.189Z,11.35
2022-11-04T20:30:29.998Z,11.40
2022-11-04T20:32:57.785Z,11.44
2022-11-04T20:35:25.597Z,11.49
2022-11-04T20:37:53.588Z,11.50
2022-11-04T20:40:21.638Z,11.35
2022-11-04T20:42:49.817Z,11.47
2022-11-04T20:45:21.419Z,11.39
2022-11-04T20:47:49.497Z,11.40
2022-11-04T20:50:17.582Z,11.23
2022-11-04T20:52:45.363Z,11.40
2022-11-04T20:55:13.503Z,11.36
2022-11-04T20:57:41.382Z,11.34
2022-11-04T21:00:10.537Z,11.24
2022-11-04T21:02:40.014Z,11.50
2022-11-04T21:05:08.661Z,11.53
2022-11-04T21:07:36.953Z,11.66
2022-11-04T21:10:05.387Z,11.59
2022-11-04T21:12:33.302Z,11.63
2022-11-04T21:15:01.090Z,11.53
2022-11-04T21:17:29.562Z,11.60
2022-11-04T21:19:59.131Z,11.63
2022-11-04T21:22:27.050Z,11.65
2022-11-04T21:24:54.996Z,11.65
2022-11-04T21:27:22.917Z,11.61
2022-11-04T21:29:50.790Z,11.59
2022-11-04T21:32:18.749Z,11.67
2022-11-04T21:34:46.760Z,11.67
2022-11-04T21:37:16.250Z,11.64
2022-11-04T21:39:44.134Z,11.60
2022-11-04T21:42:12.111Z,11.58
2022-11-04T21:44:40.037Z,11.54
2022-11-04T21:47:08.356Z,11.51
2022-11-04T21:49:36.432Z,11.52
2022-11-04T21:52:04.446Z,11.45
2022-11-04T21:54:33.759Z,11.59
2022-11-04T21:57:01.702Z,11.59
2022-11-04T21:59:29.586Z,11.41
2022-11-04T22:01:57.515Z,11.41
2022-11-04T22:04:25.584Z,11.31
2022-11-04T22:06:53.693Z,11.36
2022-11-04T22:09:21.683Z,11.49
2022-11-04T22:11:50.825Z,11.44
2022-11-04T22:14:18.576Z,11.52
2022-11-04T22:16:46.377Z,11.55
2022-11-04T22:19:14.444Z,11.54
2022-11-04T22:21:44.225Z,11.60
2022-11-04T22:24:12.816Z,11.69
2022-11-04T22:26:40.833Z,11.76
2022-11-04T22:29:10.433Z,11.91
2022-11-04T22:31:40.767Z,11.97
2022-11-04T22:34:09.664Z,11.86
2022-11-04T22:36:37.879Z,11.94
2022-11-04T22:39:08.340Z,11.84
2022-11-04T22:41:38.400Z,11.88
2022-11-04T22:44:06.249Z,11.63
2022-11-04T22:46:35.593Z,11.68
2022-11-04T22:49:03.392Z,11.55
2022-11-04T22:51:32.444Z,11.67
2022-11-04T22:54:06.564Z,11.54
2022-11-04T22:56:35.897Z,11.40
2022-11-04T22:59:03.701Z,11.42
2022-11-04T23:01:33.700Z,11.27
2022-11-04T23:04:03.454Z,11.27
2022-11-04T23:06:31.503Z,11.27
2022-11-04T23:09:00.630Z,11.32
2022-11-04T23:11:48.232Z,11.22
2022-11-04T23:14:35.560Z,11.32
2022-11-04T23:17:21.720Z,11.33
2022-11-04T23:19:51.482Z,11.14
2022-11-04T23:22:36.906Z,11.22
2022-11-04T23:25:09.853Z,11.16
2022-11-04T23:27:57.805Z,11.20
2022-11-04T23:30:27.189Z,11.16
2022-11-04T23:32:56.765Z,11.11
2022-11-04T23:35:45.013Z,11.29
2022-11-04T23:38:13.105Z,11.16
2022-11-04T23:40:41.093Z,11.08
2022-11-04T23:43:09.363Z,11.02
2022-11-04T23:45:54.829Z,11.08
2022-11-04T23:48:39.949Z,11.01
2022-11-04T23:51:29.429Z,11.01
2022-11-04T23:54:14.846Z,11.01
2022-11-04T23:57:00.467Z,11.11
2022-11-04T23:59:45.716Z,11.02
